首页
METAR-TAF:

METAR-TAF

机场 :

因斯布魯克機場

因斯布鲁克, 奥地利

纬度: 47-16N, 经度: 011-21E, 海拔: 581米

当前天气观测

该预报发布于19分钟前的13:50 UTC
风速8节,风向东转东北,在东北东转东南之间变化
温度 15°C
湿度 82%
气压 1017 hPa
能见度10公里或以上
少量云层高于1200英尺
散云层高于2500英尺
多云层高于5500英尺

METAR: LOWI 041350Z 07008KT 040V120 9999 FEW012 SCT025 BKN055 15/12 Q1017 NOSIG

时间: 16:09 (14:09 UTC)

预报

该预报发布于2小时和54分钟前的11:15 UTC
预报有效从04日的 12点(UTC)到 05日的 12点(UTC)
风速5节,风向西
能见度10公里或以上
少量云层高于1000英尺
散云层高于2000英尺
多云层高于6000英尺
短暂存在
从 04日的 12点(UTC)到 04日的 18点(UTC)
风速10节,风向西
小雨
短暂存在
从 05日的 02点(UTC)到 05日的 07点(UTC)
少量云层高于500英尺
多云层高于900英尺

TAF: LOWI 041115Z 0412/0512 27005KT 9999 FEW010 SCT020 BKN060 TX20/0512Z TN10/0502Z TEMPO 0412/0418 27010KT -RA TEMPO 0502/0507 FEW005 BKN009

超过4000个机场的气象观测和天气预报(METAR&TAF报告)。

可查询的气象台以黄色和红色小点在地图上表示。

将鼠标移到小点上方,可查看气象台名称。

然后点击查看天气观测和预报。

如需切换地图:点击带黑十字的绿色按钮放大地图;点击带横线的绿色按钮缩小地图;或者点击绿色箭头查看邻近地区的地图。


METAR-TAF: